createdAt,value
2019-01-03T00:01:28.714Z,48.41
2019-01-03T00:04:18.883Z,48.29
2019-01-03T00:07:04.534Z,48.24
2019-01-03T00:10:00.470Z,48.19
2019-01-03T00:13:04.561Z,48.26
2019-01-03T00:16:10.106Z,48.26
2019-01-03T00:19:09.530Z,48.42
2019-01-03T00:21:56.669Z,48.26
2019-01-03T00:24:40.051Z,48.17
2019-01-03T00:27:33.434Z,48.41
2019-01-03T00:30:19.572Z,48.29
2019-01-03T00:33:20.492Z,48.26
2019-01-03T00:36:13.786Z,48.26
2019-01-03T00:39:12.968Z,48.27
2019-01-03T00:42:06.154Z,48.29
2019-01-03T00:44:51.968Z,48.19
2019-01-03T00:47:42.096Z,48.30
2019-01-03T00:50:33.621Z,48.16
2019-01-03T00:53:33.091Z,48.38
2019-01-03T00:56:23.136Z,48.30
2019-01-03T00:58:59.426Z,48.23
2019-01-03T01:01:46.540Z,48.26
2019-01-03T01:04:32.545Z,48.19
2019-01-03T01:07:37.826Z,48.26
2019-01-03T01:10:28.194Z,48.31
2019-01-03T01:13:14.129Z,48.21
2019-01-03T01:16:10.210Z,48.14
2019-01-03T01:19:12.476Z,48.20
2019-01-03T01:21:58.284Z,48.16
2019-01-03T01:24:45.567Z,48.14
2019-01-03T01:27:31.507Z,48.30
2019-01-03T01:30:21.726Z,48.21
2019-01-03T01:33:12.028Z,48.24
2019-01-03T01:35:57.747Z,48.23
2019-01-03T01:38:44.824Z,48.18
2019-01-03T01:41:41.163Z,48.19
2019-01-03T01:44:28.266Z,48.20
2019-01-03T01:47:26.531Z,48.18
2019-01-03T01:50:13.697Z,48.08
2019-01-03T01:53:03.817Z,48.26
2019-01-03T01:55:56.678Z,48.27
2019-01-03T01:58:33.758Z,48.19
2019-01-03T02:01:19.766Z,48.13
2019-01-03T02:04:09.882Z,48.29
2019-01-03T02:07:14.939Z,48.39
2019-01-03T02:10:13.957Z,48.21
2019-01-03T02:13:01.082Z,48.08
2019-01-03T02:15:54.297Z,48.18
2019-01-03T02:18:56.547Z,48.15
2019-01-03T02:21:58.867Z,48.11
2019-01-03T02:24:44.543Z,48.19
2019-01-03T02:27:30.433Z,48.18
2019-01-03T02:30:26.040Z,48.09
2019-01-03T02:33:28.512Z,48.09
2019-01-03T02:36:15.643Z,48.15
2019-01-03T02:39:11.928Z,48.12
2019-01-03T02:42:08.510Z,48.14
2019-01-03T02:44:51.924Z,48.06
2019-01-03T02:47:39.130Z,48.06
2019-01-03T02:50:25.293Z,48.17
2019-01-03T02:53:11.222Z,48.23
2019-01-03T02:56:01.126Z,48.15
2019-01-03T02:58:51.083Z,48.10
2019-01-03T03:01:43.974Z,48.17
2019-01-03T03:04:26.614Z,48.20
2019-01-03T03:07:13.691Z,48.30
2019-01-03T03:09:59.468Z,48.50
2019-01-03T03:12:40.865Z,48.38
2019-01-03T03:15:37.094Z,48.34
2019-01-03T03:18:27.390Z,48.40
2019-01-03T03:21:10.195Z,48.30
2019-01-03T03:24:00.140Z,48.34
2019-01-03T03:26:44.958Z,48.37
2019-01-03T03:29:30.737Z,48.34
2019-01-03T03:32:23.904Z,48.45
2019-01-03T03:35:10.102Z,48.48
2019-01-03T03:37:55.945Z,48.39
2019-01-03T03:40:43.165Z,48.43
2019-01-03T03:43:30.823Z,48.47
2019-01-03T03:46:18.024Z,48.34
2019-01-03T03:49:17.371Z,48.47
2019-01-03T03:52:04.579Z,48.45
2019-01-03T03:54:50.257Z,48.40
2019-01-03T03:57:36.366Z,48.42
2019-01-03T04:00:23.865Z,48.40
2019-01-03T04:03:14.178Z,48.39
2019-01-03T04:06:07.354Z,48.26
2019-01-03T04:09:03.583Z,48.33
2019-01-03T04:11:53.742Z,48.30
2019-01-03T04:14:40.887Z,48.42
2019-01-03T04:17:22.617Z,48.43
2019-01-03T04:20:18.718Z,48.40
2019-01-03T04:23:08.791Z,48.55
2019-01-03T04:25:54.542Z,48.42
2019-01-03T04:28:40.723Z,48.38
2019-01-03T04:31:39.193Z,48.41
2019-01-03T04:34:44.522Z,48.38
2019-01-03T04:37:30.256Z,48.36
2019-01-03T04:40:17.966Z,48.39
2019-01-03T04:43:08.086Z,48.25
2019-01-03T04:46:07.493Z,48.26
2019-01-03T04:48:53.680Z,48.34
2019-01-03T04:51:43.522Z,48.35
2019-01-03T04:54:29.555Z,48.40
2019-01-03T04:57:13.043Z,48.47
2019-01-03T05:00:12.289Z,48.36
2019-01-03T05:03:17.924Z,48.28
2019-01-03T05:06:23.642Z,48.44
2019-01-03T05:09:17.841Z,48.36
2019-01-03T05:12:00.315Z,48.34
2019-01-03T05:14:50.440Z,48.43
2019-01-03T05:17:55.689Z,48.33
2019-01-03T05:20:34.337Z,48.38
2019-01-03T05:23:20.299Z,48.38
2019-01-03T05:26:19.754Z,48.28
2019-01-03T05:29:05.606Z,48.28
2019-01-03T05:31:51.455Z,48.18
2019-01-03T05:34:38.590Z,48.33
2019-01-03T05:37:28.091Z,48.31
2019-01-03T05:40:13.833Z,48.33
2019-01-03T05:43:04.394Z,48.28
2019-01-03T05:45:50.405Z,48.27
2019-01-03T05:48:46.338Z,48.44
2019-01-03T05:51:36.453Z,48.50
2019-01-03T05:54:29.664Z,48.16
2019-01-03T05:57:31.931Z,48.21
2019-01-03T06:00:27.865Z,48.32
2019-01-03T06:03:13.662Z,48.28
2019-01-03T06:06:09.667Z,48.36
2019-01-03T06:09:11.908Z,48.45
2019-01-03T06:12:01.662Z,48.32
2019-01-03T06:14:47.604Z,48.32
2019-01-03T06:17:34.711Z,48.38
2019-01-03T06:20:17.745Z,48.25
2019-01-03T06:23:14.821Z,48.38
2019-01-03T06:26:10.931Z,48.32
2019-01-03T06:28:56.943Z,48.21
2019-01-03T06:31:42.852Z,48.16
2019-01-03T06:34:38.000Z,48.21
2019-01-03T06:37:28.614Z,48.36
2019-01-03T06:40:15.748Z,48.26
2019-01-03T06:43:00.270Z,48.45
2019-01-03T06:45:46.228Z,48.34
2019-01-03T06:48:33.306Z,48.44
2019-01-03T06:51:29.261Z,48.38
2019-01-03T06:54:14.857Z,48.46
2019-01-03T06:57:13.941Z,48.71
2019-01-03T07:00:13.428Z,48.74
2019-01-03T07:03:00.552Z,48.67
2019-01-03T07:05:50.701Z,48.78
2019-01-03T07:08:40.854Z,48.72
2019-01-03T07:11:26.561Z,48.89
2019-01-03T07:14:12.657Z,49.10
2019-01-03T07:16:58.332Z,49.11
2019-01-03T07:20:00.777Z,49.03
2019-01-03T07:22:53.899Z,49.26
2019-01-03T07:25:39.981Z,49.85
2019-01-03T07:28:27.130Z,49.73
2019-01-03T07:31:26.847Z,49.82
2019-01-03T07:34:22.061Z,49.89
2019-01-03T07:37:09.222Z,49.65
2019-01-03T07:39:56.381Z,49.74
2019-01-03T07:42:42.018Z,49.79
2019-01-03T07:45:27.969Z,49.72
2019-01-03T07:48:10.265Z,49.49
2019-01-03T07:51:09.497Z,49.50
2019-01-03T07:53:55.300Z,49.67
2019-01-03T07:56:42.412Z,49.61
2019-01-03T07:59:24.736Z,49.53
2019-01-03T08:02:27.261Z,49.44
2019-01-03T08:05:29.686Z,49.33
2019-01-03T08:08:25.771Z,49.12
2019-01-03T08:11:12.919Z,49.09
2019-01-03T08:14:15.446Z,49.06
2019-01-03T08:17:07.350Z,49.01
2019-01-03T08:19:57.202Z,48.80
2019-01-03T08:22:42.973Z,48.81
2019-01-03T08:25:45.234Z,48.82
2019-01-03T08:28:32.302Z,48.73
2019-01-03T08:31:25.414Z,48.69
2019-01-03T08:34:11.029Z,48.76
2019-01-03T08:36:58.110Z,48.57
2019-01-03T08:40:03.587Z,48.55
2019-01-03T08:42:54.773Z,48.50
2019-01-03T08:45:42.581Z,48.40
2019-01-03T08:48:28.293Z,48.22
2019-01-03T08:51:14.301Z,48.13
2019-01-03T08:54:12.617Z,48.20
2019-01-03T08:56:58.590Z,48.23
2019-01-03T08:59:44.210Z,47.91
2019-01-03T09:02:49.525Z,48.07
2019-01-03T09:05:51.950Z,48.29
2019-01-03T09:08:41.815Z,48.05
2019-01-03T09:11:34.893Z,48.07
2019-01-03T09:14:20.683Z,48.09
2019-01-03T09:17:16.804Z,48.01
2019-01-03T09:20:02.478Z,48.12
2019-01-03T09:22:41.175Z,48.19
2019-01-03T09:25:28.238Z,48.13
2019-01-03T09:28:21.622Z,48.11
2019-01-03T09:31:07.952Z,48.09
2019-01-03T09:34:03.165Z,48.05
2019-01-03T09:36:50.273Z,48.14
2019-01-03T09:39:36.319Z,48.05
2019-01-03T09:42:29.537Z,48.04
2019-01-03T09:44:57.658Z,47.92
2019-01-03T09:47:25.779Z,47.81
2019-01-03T09:49:54.110Z,47.74
2019-01-03T09:52:25.691Z,47.53
2019-01-03T09:54:54.362Z,47.36
2019-01-03T09:57:22.809Z,47.27
2019-01-03T09:59:51.419Z,47.35
2019-01-03T10:02:19.506Z,47.19
2019-01-03T10:04:47.626Z,47.29
2019-01-03T10:07:16.209Z,47.21
2019-01-03T10:09:47.316Z,47.27
2019-01-03T10:12:15.433Z,47.29
2019-01-03T10:14:43.828Z,47.29
2019-01-03T10:17:12.232Z,47.33
2019-01-03T10:19:42.758Z,47.37
2019-01-03T10:22:12.028Z,47.47
2019-01-03T10:24:41.141Z,47.18
2019-01-03T10:27:10.325Z,47.36
2019-01-03T10:29:40.775Z,47.28
2019-01-03T10:32:09.899Z,47.25
2019-01-03T10:34:38.158Z,47.28
2019-01-03T10:37:07.188Z,47.38
2019-01-03T10:39:36.592Z,47.43
2019-01-03T10:42:05.623Z,47.36
2019-01-03T10:44:35.013Z,47.36
2019-01-03T10:47:03.800Z,47.37
2019-01-03T10:49:32.878Z,47.35
2019-01-03T10:52:01.120Z,47.48
2019-01-03T10:54:31.587Z,47.34
2019-01-03T10:57:00.088Z,47.49
2019-01-03T10:59:28.251Z,47.42
2019-01-03T11:01:57.391Z,47.50
2019-01-03T11:04:25.624Z,47.60
2019-01-03T11:06:53.798Z,47.59
2019-01-03T11:09:22.033Z,47.50
2019-01-03T11:11:50.235Z,47.54
2019-01-03T11:14:18.392Z,47.49
2019-01-03T11:16:46.578Z,47.58
2019-01-03T11:19:14.737Z,47.54
2019-01-03T11:21:42.917Z,47.77
2019-01-03T11:24:11.108Z,47.63
2019-01-03T11:26:39.262Z,47.58
2019-01-03T11:29:07.471Z,47.51
2019-01-03T11:31:35.598Z,47.54
2019-01-03T11:34:03.813Z,47.61
2019-01-03T11:36:31.966Z,47.86
2019-01-03T11:39:00.115Z,47.61
2019-01-03T11:41:28.285Z,47.70
2019-01-03T11:43:56.437Z,47.64
2019-01-03T11:46:24.646Z,47.67
2019-01-03T11:48:52.848Z,47.76
2019-01-03T11:51:20.998Z,47.84
2019-01-03T11:53:49.204Z,47.88
2019-01-03T11:56:17.328Z,47.82
2019-01-03T11:58:45.485Z,47.95
2019-01-03T12:01:13.679Z,47.91
2019-01-03T12:03:41.895Z,47.90
2019-01-03T12:06:10.093Z,47.88
2019-01-03T12:08:38.257Z,47.83
2019-01-03T12:11:06.433Z,47.87
2019-01-03T12:13:34.661Z,47.85
2019-01-03T12:16:02.828Z,47.75
2019-01-03T12:18:31.041Z,47.87
2019-01-03T12:20:59.275Z,47.76
2019-01-03T12:23:27.436Z,47.58
2019-01-03T12:25:55.549Z,47.55
2019-01-03T12:28:23.741Z,47.61
2019-01-03T12:30:51.890Z,47.58
2019-01-03T12:33:20.003Z,47.44
2019-01-03T12:35:48.123Z,47.48
2019-01-03T12:38:16.241Z,47.42
2019-01-03T12:40:44.369Z,47.27
2019-01-03T12:43:12.480Z,47.36
2019-01-03T12:45:40.643Z,47.39
2019-01-03T12:48:08.765Z,47.42
2019-01-03T12:50:36.886Z,47.42
2019-01-03T12:53:04.996Z,47.54
2019-01-03T12:55:33.122Z,47.49
2019-01-03T12:58:01.267Z,47.72
2019-01-03T13:00:29.381Z,47.60
2019-01-03T13:02:57.538Z,47.54
2019-01-03T13:05:25.662Z,47.64
2019-01-03T13:07:53.790Z,47.57
2019-01-03T13:10:21.902Z,47.47
2019-01-03T13:12:50.039Z,47.58
2019-01-03T13:15:18.162Z,47.50
2019-01-03T13:17:46.283Z,47.58
2019-01-03T13:20:14.393Z,47.54
2019-01-03T13:22:42.543Z,47.54
2019-01-03T13:25:10.661Z,47.62
2019-01-03T13:27:38.781Z,47.74
2019-01-03T13:30:08.077Z,47.75
2019-01-03T13:32:36.366Z,47.83
2019-01-03T13:35:04.549Z,47.72
2019-01-03T13:37:32.665Z,47.69
2019-01-03T13:40:01.244Z,47.78
2019-01-03T13:42:29.397Z,47.82
2019-01-03T13:44:57.674Z,47.84
2019-01-03T13:47:25.824Z,47.69
2019-01-03T13:49:54.032Z,47.81
2019-01-03T13:52:22.164Z,47.81
2019-01-03T13:54:50.302Z,47.76
2019-01-03T13:57:18.437Z,47.83
2019-01-03T13:59:46.606Z,47.84
2019-01-03T14:02:14.829Z,48.01
2019-01-03T14:04:43.024Z,47.98
2019-01-03T14:07:11.211Z,48.01
2019-01-03T14:09:39.482Z,47.92
2019-01-03T14:12:07.617Z,47.98
2019-01-03T14:14:35.834Z,48.03
2019-01-03T14:17:03.959Z,47.92
2019-01-03T14:19:32.081Z,48.06
2019-01-03T14:22:00.263Z,48.14
2019-01-03T14:24:28.412Z,48.07
2019-01-03T14:26:56.587Z,48.15
2019-01-03T14:29:24.798Z,48.16
2019-01-03T14:31:52.960Z,48.02
2019-01-03T14:34:21.082Z,48.11
2019-01-03T14:36:49.263Z,48.34
2019-01-03T14:39:17.405Z,48.21
2019-01-03T14:41:45.585Z,48.20
2019-01-03T14:44:13.730Z,48.19
2019-01-03T14:46:41.886Z,48.03
2019-01-03T14:49:10.053Z,48.13
2019-01-03T14:51:38.223Z,48.16
2019-01-03T14:54:06.428Z,48.13
2019-01-03T14:56:34.596Z,48.16
2019-01-03T14:59:02.784Z,48.33
2019-01-03T15:01:30.924Z,48.17
2019-01-03T15:03:59.134Z,48.09
2019-01-03T15:06:27.285Z,48.26
2019-01-03T15:08:55.638Z,48.29
2019-01-03T15:11:23.809Z,48.33
2019-01-03T15:13:51.946Z,48.32
2019-01-03T15:16:20.146Z,48.32
2019-01-03T15:18:48.282Z,48.32
2019-01-03T15:21:16.457Z,48.49
2019-01-03T15:23:44.679Z,48.59
2019-01-03T15:26:12.858Z,48.58
2019-01-03T15:28:41.065Z,48.55
2019-01-03T15:31:09.225Z,48.54
2019-01-03T15:33:37.449Z,48.51
2019-01-03T15:36:05.666Z,48.71
2019-01-03T15:38:33.846Z,48.70
2019-01-03T15:41:02.018Z,48.52
2019-01-03T15:46:23.611Z,48.67
2019-01-03T15:48:51.758Z,48.67
2019-01-03T15:51:20.012Z,48.57
2019-01-03T15:53:48.231Z,48.75
2019-01-03T15:56:16.406Z,48.60
2019-01-03T15:58:44.542Z,48.56
2019-01-03T16:01:12.778Z,48.73
2019-01-03T16:03:40.962Z,48.57
2019-01-03T16:06:09.161Z,48.70
2019-01-03T16:08:37.307Z,48.57
2019-01-03T16:11:05.495Z,48.64
2019-01-03T16:13:33.741Z,48.61
2019-01-03T16:16:02.006Z,48.84
2019-01-03T16:18:30.235Z,48.80
2019-01-03T16:20:58.385Z,48.72
2019-01-03T16:23:26.601Z,48.70
2019-01-03T16:25:54.801Z,48.78
2019-01-03T16:28:22.981Z,48.83
2019-01-03T16:30:51.166Z,48.82
2019-01-03T16:33:19.371Z,48.80
2019-01-03T16:35:48.275Z,48.79
2019-01-03T16:38:17.306Z,48.80
2019-01-03T16:40:45.425Z,48.90
2019-01-03T16:43:13.553Z,48.69
2019-01-03T16:45:41.690Z,48.81
2019-01-03T16:48:09.834Z,48.82
2019-01-03T16:50:37.951Z,48.74
2019-01-03T16:53:06.200Z,49.01
2019-01-03T16:55:34.336Z,48.97
2019-01-03T16:58:02.468Z,48.89
2019-01-03T17:00:30.626Z,48.92
2019-01-03T17:02:58.744Z,48.95
2019-01-03T17:05:26.907Z,48.97
2019-01-03T17:07:55.017Z,48.88
2019-01-03T17:10:23.143Z,49.12
2019-01-03T17:12:51.274Z,49.09
2019-01-03T17:15:19.403Z,48.99
2019-01-03T17:17:47.525Z,49.13
2019-01-03T17:20:15.650Z,49.02
2019-01-03T17:22:43.806Z,49.31
2019-01-03T17:25:13.106Z,49.32
2019-01-03T17:27:41.234Z,49.35
2019-01-03T17:30:10.251Z,49.33
2019-01-03T17:32:38.341Z,49.43
2019-01-03T17:35:06.915Z,49.24
2019-01-03T17:37:35.051Z,49.07
2019-01-03T17:40:03.443Z,49.19
2019-01-03T17:42:31.560Z,49.44
2019-01-03T17:44:59.677Z,49.26
2019-01-03T17:47:27.888Z,49.13
2019-01-03T17:49:56.010Z,49.36
2019-01-03T17:52:24.146Z,49.37
2019-01-03T17:54:52.326Z,49.39
2019-01-03T17:57:20.486Z,49.39
2019-01-03T17:59:48.605Z,49.17
2019-01-03T18:02:16.720Z,49.30
2019-01-03T18:04:44.881Z,49.43
2019-01-03T18:07:13.001Z,49.39
2019-01-03T18:09:41.171Z,49.23
2019-01-03T18:12:09.286Z,49.22
2019-01-03T18:14:37.398Z,49.30
2019-01-03T18:17:05.530Z,49.26
2019-01-03T18:19:33.646Z,49.19
2019-01-03T18:22:01.774Z,49.19
2019-01-03T18:24:29.893Z,49.25
2019-01-03T18:26:58.181Z,49.27
2019-01-03T18:29:26.299Z,49.34
2019-01-03T18:31:54.420Z,49.23
2019-01-03T18:34:22.536Z,49.47
2019-01-03T18:36:50.882Z,49.60
2019-01-03T18:39:18.997Z,49.44
2019-01-03T18:41:47.134Z,49.30
2019-01-03T18:44:15.266Z,49.41
2019-01-03T18:46:43.442Z,49.59
2019-01-03T18:49:11.576Z,49.51
2019-01-03T18:51:39.798Z,49.52
2019-01-03T18:54:07.921Z,49.47
2019-01-03T18:56:36.044Z,49.43
2019-01-03T18:59:04.170Z,49.50
2019-01-03T19:01:32.386Z,49.48
2019-01-03T19:04:00.551Z,49.40
2019-01-03T19:06:28.689Z,49.35
2019-01-03T19:08:57.334Z,49.23
2019-01-03T19:11:25.447Z,49.33
2019-01-03T19:13:54.262Z,49.15
2019-01-03T19:16:22.331Z,49.10
2019-01-03T19:18:51.067Z,48.93
2019-01-03T19:21:19.145Z,48.75
2019-01-03T19:23:48.540Z,48.90
2019-01-03T19:26:16.633Z,48.74
2019-01-03T19:28:45.277Z,49.02
2019-01-03T19:31:13.357Z,48.83
2019-01-03T19:33:41.493Z,48.94
2019-01-03T19:36:09.715Z,48.84
2019-01-03T19:38:37.921Z,48.69
2019-01-03T19:41:06.083Z,48.60
2019-01-03T19:43:34.209Z,48.51
2019-01-03T19:46:02.480Z,48.59
2019-01-03T19:48:30.629Z,48.57
2019-01-03T19:50:58.786Z,48.56
2019-01-03T19:53:26.945Z,48.48
2019-01-03T19:55:55.093Z,48.45
2019-01-03T19:58:23.297Z,48.58
2019-01-03T20:00:51.459Z,48.58
2019-01-03T20:03:19.774Z,48.63
2019-01-03T20:05:48.246Z,48.55
2019-01-03T20:08:16.411Z,48.63
2019-01-03T20:10:45.265Z,48.40
2019-01-03T20:13:13.390Z,48.42
2019-01-03T20:15:42.146Z,48.59
2019-01-03T20:18:10.382Z,48.59
2019-01-03T20:20:39.862Z,48.58
2019-01-03T20:23:08.106Z,48.58
2019-01-03T20:25:36.704Z,48.73
2019-01-03T20:28:04.810Z,48.61
2019-01-03T20:30:33.085Z,48.48
2019-01-03T20:33:01.283Z,48.39
2019-01-03T20:35:29.436Z,48.54
2019-01-03T20:37:58.112Z,48.55
2019-01-03T20:40:26.200Z,48.39
2019-01-03T20:42:54.387Z,48.48
2019-01-03T20:45:22.622Z,48.28
2019-01-03T20:47:51.290Z,48.45
2019-01-03T20:50:19.425Z,48.36
2019-01-03T20:52:47.593Z,48.30
2019-01-03T20:55:15.774Z,48.28
2019-01-03T20:57:43.929Z,48.16
2019-01-03T21:00:12.792Z,48.23
2019-01-03T21:02:40.955Z,47.96
2019-01-03T21:05:09.103Z,48.16
2019-01-03T21:07:37.265Z,48.18
2019-01-03T21:10:06.159Z,48.25
2019-01-03T21:12:34.289Z,48.22
2019-01-03T21:15:02.547Z,48.38
2019-01-03T21:17:30.719Z,48.17
2019-01-03T21:19:58.887Z,48.27
2019-01-03T21:22:27.058Z,48.00
2019-01-03T21:24:55.211Z,48.01
2019-01-03T21:27:23.401Z,48.08
2019-01-03T21:29:51.568Z,48.15
2019-01-03T21:32:19.738Z,47.96
2019-01-03T21:34:47.914Z,48.00
2019-01-03T21:37:16.103Z,48.07
2019-01-03T21:39:44.268Z,48.00
2019-01-03T21:42:12.459Z,48.04
2019-01-03T21:44:40.610Z,48.01
2019-01-03T21:47:08.866Z,47.74
2019-01-03T21:49:37.013Z,47.98
2019-01-03T21:52:05.202Z,48.05
2019-01-03T21:54:33.503Z,47.86
2019-01-03T21:57:01.673Z,47.96
2019-01-03T21:59:30.015Z,47.76
2019-01-03T22:01:59.176Z,48.01
2019-01-03T22:04:27.549Z,47.98
2019-01-03T22:06:55.999Z,47.81
2019-01-03T22:09:24.183Z,47.81
2019-01-03T22:11:52.431Z,47.74
2019-01-03T22:14:20.750Z,47.99
2019-01-03T22:16:48.941Z,47.80
2019-01-03T22:19:17.481Z,47.86
2019-01-03T22:21:45.914Z,47.64
2019-01-03T22:24:14.473Z,47.61
2019-01-03T22:26:42.756Z,47.42
2019-01-03T22:29:11.007Z,47.43
2019-01-03T22:31:39.188Z,47.46
2019-01-03T22:34:07.441Z,47.65
2019-01-03T22:36:35.810Z,47.48
2019-01-03T22:39:04.317Z,47.49
2019-01-03T22:41:32.530Z,47.46
2019-01-03T22:44:00.726Z,47.34
2019-01-03T22:46:28.912Z,47.38
2019-01-03T22:48:57.083Z,47.36
2019-01-03T22:51:25.254Z,47.41
2019-01-03T22:53:53.450Z,47.37
2019-01-03T22:56:21.655Z,47.56
2019-01-03T22:58:49.896Z,47.63
2019-01-03T23:01:18.130Z,47.38
2019-01-03T23:03:46.414Z,47.38
2019-01-03T23:06:14.607Z,47.35
2019-01-03T23:08:42.838Z,47.23
2019-01-03T23:11:11.083Z,47.30
2019-01-03T23:13:39.257Z,47.39
2019-01-03T23:16:07.492Z,47.28
2019-01-03T23:18:35.687Z,47.51
2019-01-03T23:21:04.094Z,47.58
2019-01-03T23:23:51.175Z,47.40
2019-01-03T23:26:19.342Z,47.12
2019-01-03T23:28:47.534Z,47.41
2019-01-03T23:31:15.717Z,47.41
2019-01-03T23:33:43.997Z,47.25
2019-01-03T23:38:46.448Z,47.23
2019-01-03T23:41:14.757Z,47.32
2019-01-03T23:43:42.912Z,47.21
2019-01-03T23:46:11.109Z,47.23
2019-01-03T23:48:39.325Z,47.24
2019-01-03T23:51:07.487Z,47.32
2019-01-03T23:53:35.641Z,47.02
2019-01-03T23:56:03.866Z,47.37
2019-01-03T23:58:32.087Z,47.37
